createdAt,value
2022-10-24T00:01:17.723Z,14.50
2022-10-24T00:03:44.567Z,14.50
2022-10-24T00:06:12.663Z,14.48
2022-10-24T00:08:41.080Z,14.48
2022-10-24T00:11:19.349Z,14.46
2022-10-24T00:13:46.035Z,14.56
2022-10-24T00:16:13.349Z,14.64
2022-10-24T00:18:40.679Z,14.64
2022-10-24T00:21:07.913Z,14.75
2022-10-24T00:23:35.275Z,14.91
2022-10-24T00:26:04.048Z,15.12
2022-10-24T00:28:32.968Z,15.37
2022-10-24T00:30:59.756Z,15.67
2022-10-24T00:33:26.846Z,15.89
2022-10-24T00:35:53.922Z,16.11
2022-10-24T00:38:20.487Z,16.19
2022-10-24T00:40:47.092Z,16.26
2022-10-24T00:43:23.130Z,16.35
2022-10-24T00:46:00.493Z,16.46
2022-10-24T00:48:43.748Z,16.53
2022-10-24T00:51:24.918Z,16.57
2022-10-24T00:53:55.696Z,16.53
2022-10-24T00:56:28.789Z,16.57
2022-10-24T00:58:57.606Z,16.59
2022-10-24T01:01:26.944Z,16.52
2022-10-24T01:03:53.527Z,16.48
2022-10-24T01:06:55.057Z,16.50
2022-10-24T01:09:39.766Z,16.45
2022-10-24T01:12:36.976Z,16.36
2022-10-24T01:15:18.103Z,16.31
2022-10-24T01:18:03.283Z,16.33
2022-10-24T01:21:06.889Z,16.34
2022-10-24T01:23:54.791Z,16.25
2022-10-24T01:26:49.592Z,16.17
2022-10-24T01:29:25.591Z,16.17
2022-10-24T01:31:54.733Z,16.25
2022-10-24T01:34:27.486Z,16.25
2022-10-24T01:37:04.629Z,16.26
2022-10-24T01:39:39.235Z,16.18
2022-10-24T01:42:07.668Z,16.06
2022-10-24T01:44:40.702Z,16.12
2022-10-24T01:47:19.661Z,16.20
2022-10-24T01:50:04.323Z,16.12
2022-10-24T01:52:34.787Z,16.10
2022-10-24T01:55:01.965Z,16.02
2022-10-24T01:57:32.549Z,15.97
2022-10-24T01:59:59.847Z,15.96
2022-10-24T02:02:36.444Z,16.07
2022-10-24T02:05:15.700Z,15.99
2022-10-24T02:07:46.166Z,15.96
2022-10-24T02:10:19.197Z,15.84
2022-10-24T02:12:53.876Z,16.01
2022-10-24T02:15:31.289Z,16.07
2022-10-24T02:17:58.174Z,16.13
2022-10-24T02:20:39.689Z,16.16
2022-10-24T02:23:20.827Z,16.13
2022-10-24T02:25:52.523Z,16.17
2022-10-24T02:28:24.243Z,16.16
2022-10-24T02:30:57.682Z,16.13
2022-10-24T02:33:26.533Z,16.16
2022-10-24T02:35:54.737Z,16.28
2022-10-24T02:38:30.669Z,16.28
2022-10-24T02:40:58.759Z,16.24
2022-10-24T02:43:27.307Z,16.12
2022-10-24T02:45:56.372Z,16.22
2022-10-24T02:48:28.994Z,16.24
2022-10-24T02:50:55.495Z,16.06
2022-10-24T02:53:25.324Z,16.00
2022-10-24T02:55:52.234Z,15.88
2022-10-24T02:58:18.739Z,15.86
2022-10-24T03:00:45.340Z,15.71
2022-10-24T03:03:11.814Z,15.59
2022-10-24T03:05:38.412Z,15.56
2022-10-24T03:08:05.300Z,15.67
2022-10-24T03:10:31.772Z,15.67
2022-10-24T03:12:58.262Z,15.69
2022-10-24T03:15:24.743Z,15.71
2022-10-24T03:17:51.258Z,15.80
2022-10-24T03:20:17.976Z,15.79
2022-10-24T03:22:44.437Z,15.83
2022-10-24T03:25:11.941Z,15.82
2022-10-24T03:27:38.808Z,15.85
2022-10-24T03:30:07.692Z,15.89
2022-10-24T03:32:34.535Z,15.84
2022-10-24T03:35:02.114Z,15.87
2022-10-24T03:37:29.143Z,15.91
2022-10-24T03:39:55.790Z,15.93
2022-10-24T03:42:22.401Z,15.93
2022-10-24T03:44:49.325Z,15.93
2022-10-24T03:47:16.054Z,15.93
2022-10-24T03:49:42.594Z,15.93
2022-10-24T03:52:09.657Z,15.95
2022-10-24T03:54:36.243Z,15.94
2022-10-24T03:57:03.174Z,15.91
2022-10-24T03:59:29.898Z,15.93
2022-10-24T04:01:56.519Z,15.88
2022-10-24T04:04:23.210Z,15.80
2022-10-24T04:06:49.735Z,15.85
2022-10-24T04:09:16.214Z,15.94
2022-10-24T04:11:42.740Z,15.93
2022-10-24T04:14:09.663Z,15.98
2022-10-24T04:16:36.190Z,15.95
2022-10-24T04:19:02.863Z,15.97
2022-10-24T04:21:29.425Z,15.97
2022-10-24T04:23:56.595Z,16.05
2022-10-24T04:26:24.027Z,16.07
2022-10-24T04:28:51.008Z,16.13
2022-10-24T04:31:22.594Z,16.06
2022-10-24T04:33:50.786Z,16.00
2022-10-24T04:36:24.951Z,15.97
2022-10-24T04:38:52.671Z,15.94
2022-10-24T04:41:19.300Z,16.03
2022-10-24T04:43:45.735Z,16.05
2022-10-24T04:46:13.159Z,16.04
2022-10-24T04:48:40.608Z,15.93
2022-10-24T04:51:07.186Z,15.96
2022-10-24T04:53:33.649Z,15.92
2022-10-24T04:56:00.563Z,15.94
2022-10-24T04:58:27.137Z,15.96
2022-10-24T05:00:53.641Z,15.83
2022-10-24T05:03:21.264Z,15.77
2022-10-24T05:05:47.876Z,15.72
2022-10-24T05:08:16.666Z,15.77
2022-10-24T05:10:43.623Z,15.70
2022-10-24T05:13:11.690Z,15.67
2022-10-24T05:15:38.282Z,15.64
2022-10-24T05:18:04.838Z,15.61
2022-10-24T05:20:31.608Z,15.65
2022-10-24T05:22:58.974Z,15.67
2022-10-24T05:25:25.755Z,15.64
2022-10-24T05:27:52.351Z,15.78
2022-10-24T05:30:21.336Z,15.80
2022-10-24T05:32:48.333Z,15.79
2022-10-24T05:35:15.303Z,15.84
2022-10-24T05:37:42.383Z,15.89
2022-10-24T05:40:15.085Z,15.74
2022-10-24T05:42:42.115Z,15.70
2022-10-24T05:45:11.017Z,15.58
2022-10-24T05:47:40.291Z,15.60
2022-10-24T05:50:07.397Z,15.48
2022-10-24T05:52:36.682Z,15.43
2022-10-24T05:55:07.605Z,15.55
2022-10-24T05:57:35.848Z,15.50
2022-10-24T06:00:02.541Z,15.47
2022-10-24T06:02:29.457Z,15.35
2022-10-24T06:04:59.030Z,15.38
2022-10-24T06:07:27.069Z,15.40
2022-10-24T06:09:54.232Z,15.46
2022-10-24T06:12:20.729Z,15.48
2022-10-24T06:14:47.361Z,15.48
2022-10-24T06:17:14.059Z,15.42
2022-10-24T06:19:41.038Z,15.40
2022-10-24T06:22:09.058Z,15.41
2022-10-24T06:24:37.414Z,15.40
2022-10-24T06:27:05.089Z,15.32
2022-10-24T06:29:32.163Z,15.36
2022-10-24T06:31:58.810Z,15.32
2022-10-24T06:34:26.419Z,15.35
2022-10-24T06:36:52.938Z,15.34
2022-10-24T06:39:19.651Z,15.38
2022-10-24T06:41:46.418Z,15.43
2022-10-24T06:44:12.949Z,15.32
2022-10-24T06:46:39.576Z,15.30
2022-10-24T06:49:10.613Z,15.33
2022-10-24T06:51:38.366Z,15.31
2022-10-24T06:54:04.939Z,15.43
2022-10-24T06:56:32.068Z,15.50
2022-10-24T06:58:58.595Z,15.53
2022-10-24T07:01:27.398Z,15.64
2022-10-24T07:03:54.932Z,15.64
2022-10-24T07:06:28.576Z,15.65
2022-10-24T07:08:58.582Z,15.62
2022-10-24T07:11:26.059Z,15.70
2022-10-24T07:13:55.319Z,15.74
2022-10-24T07:16:25.597Z,15.84
2022-10-24T07:18:52.187Z,15.86
2022-10-24T07:21:22.945Z,15.82
2022-10-24T07:23:51.817Z,15.78
2022-10-24T07:26:19.826Z,15.71
2022-10-24T07:28:47.729Z,15.68
2022-10-24T07:31:20.889Z,15.66
2022-10-24T07:33:51.741Z,15.58
2022-10-24T07:36:19.955Z,15.61
2022-10-24T07:38:47.933Z,15.62
2022-10-24T07:41:14.374Z,15.62
2022-10-24T07:43:41.424Z,15.65
2022-10-24T07:46:10.297Z,15.66
2022-10-24T07:48:37.954Z,15.66
2022-10-24T07:51:10.961Z,15.68
2022-10-24T07:53:37.462Z,15.68
2022-10-24T07:56:11.972Z,15.66
2022-10-24T07:58:38.623Z,15.68
2022-10-24T08:01:10.668Z,15.65
2022-10-24T08:03:37.581Z,15.64
2022-10-24T08:06:10.273Z,15.66
2022-10-24T08:08:38.046Z,15.69
2022-10-24T08:11:15.625Z,15.73
2022-10-24T08:13:50.008Z,15.79
2022-10-24T08:16:18.483Z,15.80
2022-10-24T08:18:45.166Z,15.70
2022-10-24T08:21:14.249Z,15.75
2022-10-24T08:23:43.936Z,15.73
2022-10-24T08:26:13.696Z,15.53
2022-10-24T08:28:43.824Z,15.18
2022-10-24T08:31:21.317Z,14.82
2022-10-24T08:33:51.232Z,14.61
2022-10-24T08:36:20.658Z,14.44
2022-10-24T08:38:47.396Z,14.27
2022-10-24T08:41:27.933Z,14.09
2022-10-24T08:44:00.188Z,14.03
2022-10-24T08:46:49.106Z,13.98
2022-10-24T08:49:18.685Z,13.98
2022-10-24T08:51:55.193Z,13.98
2022-10-24T08:54:27.917Z,14.06
2022-10-24T08:56:58.070Z,14.16
2022-10-24T08:59:27.117Z,14.20
2022-10-24T09:02:30.034Z,14.19
2022-10-24T09:05:00.263Z,14.23
2022-10-24T09:07:29.593Z,14.32
2022-10-24T09:10:11.748Z,14.39
2022-10-24T09:12:40.149Z,14.50
2022-10-24T09:15:16.005Z,14.56
2022-10-24T09:17:44.003Z,14.73
2022-10-24T09:20:25.945Z,14.82
2022-10-24T09:22:55.919Z,14.96
2022-10-24T09:25:30.904Z,14.96
2022-10-24T09:27:59.053Z,14.94
2022-10-24T09:30:31.365Z,14.84
2022-10-24T09:33:07.588Z,14.86
2022-10-24T09:35:35.462Z,14.82
2022-10-24T09:38:37.900Z,14.63
2022-10-24T09:41:08.071Z,14.49
2022-10-24T09:43:45.163Z,14.45
2022-10-24T09:46:28.035Z,14.33
2022-10-24T09:49:12.978Z,14.31
2022-10-24T09:52:03.481Z,14.28
2022-10-24T09:54:33.158Z,14.16
2022-10-24T09:57:05.019Z,14.16
2022-10-24T09:59:36.058Z,14.29
2022-10-24T10:02:14.342Z,14.38
2022-10-24T10:04:42.732Z,14.32
2022-10-24T10:07:11.889Z,14.36
2022-10-24T10:09:42.361Z,14.39
2022-10-24T10:12:33.191Z,14.64
2022-10-24T10:15:02.462Z,14.71
2022-10-24T10:17:33.966Z,14.77
2022-10-24T10:20:06.687Z,14.87
2022-10-24T10:22:35.787Z,14.97
2022-10-24T10:25:05.256Z,14.97
2022-10-24T10:27:42.084Z,14.94
2022-10-24T10:33:23.289Z,14.74
2022-10-24T10:36:06.049Z,14.66
2022-10-24T10:38:55.932Z,14.70
2022-10-24T10:41:28.697Z,14.87
2022-10-24T10:44:24.680Z,14.86
2022-10-24T10:47:23.835Z,14.88
2022-10-24T10:50:00.598Z,14.68
2022-10-24T10:52:38.874Z,14.69
2022-10-24T10:55:23.531Z,14.52
2022-10-24T10:58:01.117Z,14.67
2022-10-24T11:00:51.005Z,14.65
2022-10-24T11:03:51.255Z,15.57
2022-10-24T11:06:42.170Z,16.48
2022-10-24T11:09:18.681Z,16.30
2022-10-24T11:12:08.660Z,16.11
2022-10-24T11:14:49.827Z,16.18
2022-10-24T11:17:32.473Z,15.98
2022-10-24T11:20:10.833Z,15.74
2022-10-24T11:22:48.977Z,15.71
2022-10-24T11:25:25.296Z,15.62
2022-10-24T11:28:24.136Z,15.59
2022-10-24T11:31:03.556Z,15.44
2022-10-24T11:33:46.291Z,15.41
2022-10-24T11:36:17.947Z,15.42
2022-10-24T11:38:51.371Z,15.50
2022-10-24T11:41:34.310Z,15.49
2022-10-24T11:44:12.238Z,15.45
2022-10-24T11:46:44.824Z,15.45
2022-10-24T11:49:33.060Z,15.37
2022-10-24T11:52:20.923Z,15.47
2022-10-24T11:55:23.628Z,15.60
2022-10-24T11:57:58.322Z,15.65
2022-10-24T12:00:56.983Z,15.80
2022-10-24T12:03:41.835Z,16.35
2022-10-24T12:06:33.332Z,17.21
2022-10-24T12:09:11.755Z,16.96
2022-10-24T12:12:03.826Z,17.14
2022-10-24T12:14:52.372Z,16.84
2022-10-24T12:18:00.897Z,16.90
2022-10-24T12:20:31.452Z,17.37
2022-10-24T12:23:00.782Z,17.66
2022-10-24T12:25:38.091Z,17.57
2022-10-24T12:28:21.233Z,18.14
2022-10-24T12:31:08.884Z,18.40
2022-10-24T12:33:35.445Z,18.22
2022-10-24T12:36:01.960Z,17.99
2022-10-24T12:38:28.347Z,17.64
2022-10-24T12:40:57.819Z,17.36
2022-10-24T12:43:35.374Z,17.24
2022-10-24T12:46:24.382Z,17.26
2022-10-24T12:48:56.629Z,17.07
2022-10-24T12:51:30.466Z,16.99
2022-10-24T12:54:04.553Z,16.80
2022-10-24T12:56:33.714Z,16.60
2022-10-24T12:59:02.694Z,16.38
2022-10-24T13:01:35.803Z,16.08
2022-10-24T13:04:28.929Z,15.81
2022-10-24T13:07:21.100Z,15.56
2022-10-24T13:10:08.639Z,15.34
2022-10-24T13:13:09.819Z,15.07
2022-10-24T13:15:54.334Z,14.94
2022-10-24T13:18:34.502Z,14.82
2022-10-24T13:21:16.090Z,14.67
2022-10-24T13:23:45.780Z,14.55
2022-10-24T13:26:30.986Z,14.56
2022-10-24T13:28:57.466Z,14.59
2022-10-24T13:31:23.903Z,14.76
2022-10-24T13:33:53.249Z,14.72
2022-10-24T13:36:28.635Z,14.71
2022-10-24T13:38:59.899Z,14.70
2022-10-24T13:41:34.839Z,14.82
2022-10-24T13:44:23.147Z,14.89
2022-10-24T13:46:58.610Z,14.75
2022-10-24T13:49:34.484Z,14.75
2022-10-24T13:52:15.508Z,14.95
2022-10-24T13:54:46.170Z,15.30
2022-10-24T13:57:23.945Z,15.31
2022-10-24T13:59:56.596Z,15.75
2022-10-24T14:02:31.324Z,15.73
2022-10-24T14:05:00.599Z,16.13
2022-10-24T14:07:33.574Z,16.50
2022-10-24T14:10:08.364Z,16.54
2022-10-24T14:12:41.957Z,16.48
2022-10-24T14:15:34.881Z,16.55
2022-10-24T14:18:04.935Z,16.37
2022-10-24T14:20:35.298Z,16.28
2022-10-24T14:23:15.504Z,16.12
2022-10-24T14:25:42.152Z,16.13
2022-10-24T14:28:20.531Z,15.88
2022-10-24T14:31:05.439Z,16.00
2022-10-24T14:33:42.887Z,15.93
2022-10-24T14:36:09.967Z,16.04
2022-10-24T14:38:40.732Z,16.04
2022-10-24T14:41:11.688Z,15.94
2022-10-24T14:43:46.135Z,15.92
2022-10-24T14:46:13.385Z,15.97
2022-10-24T14:48:48.165Z,15.94
2022-10-24T14:51:21.888Z,15.85
2022-10-24T14:53:50.831Z,15.85
2022-10-24T14:56:25.333Z,15.86
2022-10-24T14:58:54.136Z,15.80
2022-10-24T15:01:23.733Z,15.73
2022-10-24T15:04:02.035Z,15.53
2022-10-24T15:06:39.094Z,15.31
2022-10-24T15:09:08.747Z,15.09
2022-10-24T15:11:42.102Z,14.93
2022-10-24T15:14:36.245Z,14.71
2022-10-24T15:17:18.808Z,14.60
2022-10-24T15:19:46.880Z,14.52
2022-10-24T15:22:30.261Z,14.42
2022-10-24T15:24:59.965Z,14.36
2022-10-24T15:27:31.688Z,14.32
2022-10-24T15:29:58.147Z,14.24
2022-10-24T15:32:26.452Z,14.19
2022-10-24T15:34:56.093Z,14.22
2022-10-24T15:37:25.083Z,14.27
2022-10-24T15:39:53.231Z,14.35
2022-10-24T15:42:22.374Z,14.42
2022-10-24T15:44:49.540Z,14.48
2022-10-24T15:47:16.054Z,14.55
2022-10-24T15:49:42.532Z,14.56
2022-10-24T15:52:15.567Z,14.55
2022-10-24T15:54:42.499Z,14.50
2022-10-24T15:57:12.651Z,14.43
2022-10-24T15:59:39.659Z,14.39
2022-10-24T16:02:18.685Z,14.39
2022-10-24T16:04:45.387Z,14.41
2022-10-24T16:07:11.912Z,14.44
2022-10-24T16:09:38.786Z,14.48
2022-10-24T16:12:05.524Z,14.56
2022-10-24T16:14:32.290Z,14.60
2022-10-24T16:16:58.973Z,14.62
2022-10-24T16:19:26.578Z,14.67
2022-10-24T16:21:58.182Z,14.74
2022-10-24T16:24:25.835Z,14.70
2022-10-24T16:26:52.619Z,14.62
2022-10-24T16:29:19.152Z,14.46
2022-10-24T16:31:46.944Z,14.24
2022-10-24T16:34:13.471Z,14.06
2022-10-24T16:36:42.520Z,13.94
2022-10-24T16:39:09.404Z,13.88
2022-10-24T16:41:36.013Z,13.80
2022-10-24T16:44:03.770Z,13.75
2022-10-24T16:46:30.365Z,13.74
2022-10-24T16:48:57.130Z,13.70
2022-10-24T16:51:32.462Z,13.67
2022-10-24T16:54:00.304Z,13.60
2022-10-24T16:56:27.048Z,13.54
2022-10-24T16:58:53.684Z,13.55
2022-10-24T17:01:23.014Z,13.55
2022-10-24T17:03:49.729Z,13.50
2022-10-24T17:06:16.460Z,13.48
2022-10-24T17:08:43.363Z,13.48
2022-10-24T17:11:32.346Z,13.47
2022-10-24T17:13:58.186Z,13.44
2022-10-24T17:16:25.003Z,13.42
2022-10-24T17:19:12.094Z,13.42
2022-10-24T17:21:41.406Z,13.42
2022-10-24T17:24:11.038Z,13.40
2022-10-24T17:26:37.627Z,13.38
2022-10-24T17:29:04.814Z,13.35
2022-10-24T17:31:31.600Z,13.39
2022-10-24T17:33:58.429Z,13.44
2022-10-24T17:36:28.445Z,13.45
2022-10-24T17:39:09.293Z,13.44
2022-10-24T17:41:42.246Z,13.45
2022-10-24T17:44:16.586Z,13.51
2022-10-24T17:46:44.129Z,13.58
2022-10-24T17:49:11.314Z,13.63
2022-10-24T17:51:39.935Z,13.65
2022-10-24T17:54:09.112Z,13.64
2022-10-24T17:56:35.597Z,13.63
2022-10-24T17:59:04.082Z,13.65
2022-10-24T18:01:30.677Z,13.63
2022-10-24T18:03:57.239Z,13.60
2022-10-24T18:06:23.833Z,13.62
2022-10-24T18:08:56.267Z,13.61
2022-10-24T18:11:26.085Z,13.55
2022-10-24T18:13:52.738Z,13.51
2022-10-24T18:16:19.860Z,13.49
2022-10-24T18:18:47.667Z,13.43
2022-10-24T18:21:20.650Z,13.38
2022-10-24T18:23:48.133Z,13.31
2022-10-24T18:26:18.819Z,13.31
2022-10-24T18:28:48.054Z,13.26
2022-10-24T18:31:17.426Z,13.25
2022-10-24T18:33:44.830Z,13.23
2022-10-24T18:36:26.375Z,13.28
2022-10-24T18:38:57.362Z,13.30
2022-10-24T18:41:37.012Z,13.30
2022-10-24T18:44:25.901Z,13.35
2022-10-24T18:46:54.319Z,13.36
2022-10-24T18:49:21.104Z,13.37
2022-10-24T18:52:11.238Z,13.36
2022-10-24T18:54:46.173Z,13.42
2022-10-24T18:57:23.749Z,13.40
2022-10-24T18:59:50.737Z,13.39
2022-10-24T19:02:28.188Z,13.42
2022-10-24T19:05:19.660Z,13.41
2022-10-24T19:07:48.870Z,13.39
2022-10-24T19:10:25.748Z,13.38
2022-10-24T19:12:54.392Z,13.38
2022-10-24T19:15:21.571Z,13.38
2022-10-24T19:17:49.105Z,13.30
2022-10-24T19:20:21.890Z,13.36
2022-10-24T19:22:48.800Z,13.31
2022-10-24T19:25:16.451Z,13.29
2022-10-24T19:27:43.311Z,13.25
2022-10-24T19:30:10.883Z,13.24
2022-10-24T19:32:37.351Z,13.24
2022-10-24T19:35:04.188Z,13.26
2022-10-24T19:37:30.756Z,13.26
2022-10-24T19:39:57.276Z,13.24
2022-10-24T19:42:23.715Z,13.28
2022-10-24T19:44:54.460Z,13.30
2022-10-24T19:47:21.486Z,13.31
2022-10-24T19:49:48.991Z,13.30
2022-10-24T19:52:15.521Z,13.28
2022-10-24T19:54:42.154Z,13.26
2022-10-24T19:57:08.641Z,13.23
2022-10-24T19:59:36.122Z,13.24
2022-10-24T20:02:04.436Z,13.22
2022-10-24T20:04:31.518Z,13.20
2022-10-24T20:06:58.056Z,13.22
2022-10-24T20:09:24.614Z,13.23
2022-10-24T20:11:51.087Z,13.24
2022-10-24T20:14:17.685Z,13.22
2022-10-24T20:16:44.182Z,13.28
2022-10-24T20:19:10.691Z,13.24
2022-10-24T20:21:37.673Z,13.25
2022-10-24T20:24:04.516Z,13.25
2022-10-24T20:26:31.038Z,13.28
2022-10-24T20:28:58.386Z,13.27
2022-10-24T20:31:31.473Z,13.27
2022-10-24T20:34:06.894Z,13.26
2022-10-24T20:36:39.017Z,13.23
2022-10-24T20:39:07.819Z,13.20
2022-10-24T20:41:35.051Z,13.16
2022-10-24T20:44:02.220Z,13.14
2022-10-24T20:46:28.724Z,13.14
2022-10-24T20:48:55.308Z,13.11
2022-10-24T20:51:22.001Z,13.11
2022-10-24T20:53:48.694Z,13.10
2022-10-24T20:56:17.975Z,13.08
2022-10-24T20:58:45.528Z,13.00
2022-10-24T21:01:15.570Z,12.98
2022-10-24T21:03:43.043Z,12.95
2022-10-24T21:06:18.707Z,12.94
2022-10-24T21:08:48.161Z,12.95
2022-10-24T21:11:16.210Z,12.96
2022-10-24T21:13:43.619Z,12.94
2022-10-24T21:16:10.427Z,12.96
2022-10-24T21:18:37.716Z,12.93
2022-10-24T21:21:08.636Z,12.94
2022-10-24T21:23:35.196Z,12.96
2022-10-24T21:26:10.467Z,12.96
2022-10-24T21:28:37.382Z,12.97
2022-10-24T21:31:09.594Z,13.00
2022-10-24T21:33:37.298Z,12.96
2022-10-24T21:36:06.379Z,12.96
2022-10-24T21:38:33.395Z,12.92
2022-10-24T21:41:05.189Z,12.96
2022-10-24T21:43:35.274Z,12.97
2022-10-24T21:46:04.155Z,12.92
2022-10-24T21:48:32.716Z,12.94
2022-10-24T21:51:23.111Z,12.94
2022-10-24T21:53:54.720Z,12.91
2022-10-24T21:56:24.967Z,12.94
2022-10-24T21:58:56.734Z,12.91
2022-10-24T22:01:27.753Z,12.89
2022-10-24T22:03:56.038Z,12.87
2022-10-24T22:06:27.921Z,12.85
2022-10-24T22:08:55.721Z,12.84
2022-10-24T22:11:29.252Z,12.86
2022-10-24T22:13:56.834Z,12.85
2022-10-24T22:16:27.508Z,12.84
2022-10-24T22:18:55.959Z,12.83
2022-10-24T22:21:29.923Z,12.87
2022-10-24T22:23:57.523Z,12.80
2022-10-24T22:26:24.833Z,12.81
2022-10-24T22:28:52.050Z,12.81
2022-10-24T22:31:19.511Z,12.79
2022-10-24T22:33:46.341Z,12.77
2022-10-24T22:36:34.581Z,12.75
2022-10-24T22:39:01.460Z,12.74
2022-10-24T22:41:28.490Z,12.68
2022-10-24T22:43:56.924Z,12.73
2022-10-24T22:46:38.802Z,12.74
2022-10-24T22:49:23.099Z,12.78
2022-10-24T22:51:52.054Z,12.79
2022-10-24T22:54:24.687Z,12.79
2022-10-24T22:56:51.872Z,12.80
2022-10-24T22:59:18.727Z,12.78
2022-10-24T23:02:05.075Z,12.79
2022-10-24T23:04:53.581Z,12.79
2022-10-24T23:07:31.053Z,12.78
2022-10-24T23:09:57.795Z,12.80
2022-10-24T23:12:24.664Z,12.82
2022-10-24T23:14:53.310Z,12.85
2022-10-24T23:17:29.914Z,12.87
2022-10-24T23:19:57.494Z,12.91
2022-10-24T23:22:32.804Z,12.87
2022-10-24T23:25:01.287Z,12.91
2022-10-24T23:27:42.401Z,12.94
2022-10-24T23:30:20.497Z,12.91
2022-10-24T23:32:49.021Z,12.93
2022-10-24T23:35:18.064Z,12.94
2022-10-24T23:37:51.031Z,12.89
2022-10-24T23:40:17.490Z,12.95
2022-10-24T23:42:45.913Z,12.95
2022-10-24T23:45:19.678Z,12.98
2022-10-24T23:47:58.084Z,12.98
2022-10-24T23:50:31.872Z,12.99
2022-10-24T23:53:11.391Z,12.99
2022-10-24T23:55:38.188Z,12.94
2022-10-24T23:58:04.690Z,12.97
